createdAt,value
2018-11-20T00:25:02.866Z,30.8
2018-11-20T00:25:52.011Z,30.9
2018-11-20T00:26:43.182Z,30.8
2018-11-20T00:27:32.992Z,30.8
2018-11-20T00:28:24.662Z,30.8
2018-11-20T00:29:12.120Z,30.8
2018-11-20T00:30:04.251Z,30.8
2018-11-20T00:30:52.971Z,30.8
2018-11-20T00:31:43.082Z,30.8
2018-11-20T00:32:33.183Z,30.7
2018-11-20T00:33:23.118Z,30.7
2018-11-20T00:34:13.045Z,30.7
2018-11-20T00:35:03.374Z,30.7
2018-11-20T00:35:53.928Z,30.6
2018-11-20T00:36:43.882Z,30.6
2018-11-20T00:37:33.151Z,30.6
2018-11-20T00:38:24.406Z,30.6
2018-11-20T00:39:13.619Z,30.6
2018-11-20T00:40:05.171Z,30.6
2018-11-20T00:40:54.250Z,30.6
2018-11-20T00:41:44.800Z,30.6
2018-11-20T00:42:37.277Z,30.6
2018-11-20T00:43:24.450Z,30.6
2018-11-20T00:44:14.913Z,30.5
2018-11-20T00:45:04.853Z,30.5
2018-11-20T00:45:55.270Z,30.5
2018-11-20T00:46:44.830Z,30.4
2018-11-20T00:47:34.580Z,30.4
2018-11-20T00:48:25.898Z,30.3
2018-11-20T00:49:15.284Z,30.1
2018-11-20T00:50:05.122Z,29.5
2018-11-20T00:50:56.759Z,28.8
2018-11-20T00:51:44.827Z,28
2018-11-20T00:52:34.599Z,27.3
2018-11-20T00:53:24.369Z,26.5
2018-11-20T00:54:15.047Z,25.7
2018-11-20T00:55:05.766Z,24.9
2018-11-20T00:55:55.839Z,24.6
2018-11-20T00:56:46.706Z,24.8
2018-11-20T00:57:35.881Z,25.5
2018-11-20T00:58:24.479Z,26.5
2018-11-20T00:59:16.014Z,27.3
2018-11-20T01:00:05.075Z,27.6
2018-11-20T01:00:56.094Z,27.9
2018-11-20T01:01:45.851Z,28.2
2018-11-20T01:02:36.343Z,28.5
2018-11-20T01:03:27.143Z,28.8
2018-11-20T01:04:16.611Z,29.2
2018-11-20T01:05:07.390Z,29.4
2018-11-20T01:05:55.868Z,29.7
2018-11-20T01:06:45.700Z,29.9
2018-11-20T01:07:37.413Z,30.1
2018-11-20T01:08:26.520Z,30.3
2018-11-20T01:09:16.739Z,30.5
2018-11-20T01:10:05.893Z,30.7
2018-11-20T01:10:56.823Z,30.8
2018-11-20T01:11:47.715Z,31
2018-11-20T01:12:37.383Z,31.1
2018-11-20T01:13:25.810Z,31.3
2018-11-20T01:14:16.693Z,31.3
2018-11-20T01:15:05.415Z,31.1
2018-11-20T01:15:56.140Z,30.9
2018-11-20T01:16:46.785Z,30.9
2018-11-20T01:17:37.219Z,30.7
2018-11-20T01:18:26.203Z,30.6
2018-11-20T01:19:17.888Z,30.4
2018-11-20T01:20:06.577Z,30.3
2018-11-20T01:20:56.220Z,30.1
2018-11-20T01:21:48.397Z,30
2018-11-20T01:22:37.885Z,29.9
2018-11-20T01:23:27.952Z,29.1
2018-11-20T01:24:17.638Z,28.3
2018-11-20T01:25:06.390Z,27.9
2018-11-20T01:25:57.932Z,27.6
2018-11-20T01:26:46.534Z,27.4
2018-11-20T01:27:37.054Z,27.3
2018-11-20T01:28:28.097Z,27.1
2018-11-20T01:29:17.262Z,27
2018-11-20T01:30:07.282Z,26.9
2018-11-20T01:30:59.060Z,27.1
2018-11-20T01:31:48.842Z,27.7
2018-11-20T01:32:38.678Z,27.9
2018-11-20T01:33:28.342Z,28.1
2018-11-20T01:34:17.607Z,28.4
2018-11-20T01:35:07.401Z,28.6
2018-11-20T01:35:58.769Z,28.9
2018-11-20T01:36:47.826Z,29.1
2018-11-20T01:37:38.114Z,29.4
2018-11-20T01:38:28.424Z,29.6
2018-11-20T01:39:18.086Z,29.8
2018-11-20T01:40:07.856Z,30
2018-11-20T01:40:57.976Z,30.1
2018-11-20T01:41:47.711Z,30.3
2018-11-20T01:42:37.285Z,30.4
2018-11-20T01:43:27.696Z,30.6
2018-11-20T01:44:19.259Z,30.8
2018-11-20T01:45:08.731Z,30.8
2018-11-20T01:45:59.011Z,30.9
2018-11-20T01:46:47.969Z,31.1
2018-11-20T01:47:39.059Z,31.2
2018-11-20T01:48:29.735Z,31.3
2018-11-20T01:49:17.933Z,31.3
2018-11-20T01:50:08.621Z,31.1
2018-11-20T01:50:58.866Z,31
2018-11-20T01:51:49.951Z,30.8
2018-11-20T01:52:38.943Z,30.7
2018-11-20T01:53:29.093Z,30.6
2018-11-20T01:54:19.697Z,30.4
2018-11-20T01:55:09.730Z,30.3
2018-11-20T01:55:59.418Z,30.1
2018-11-20T01:56:49.798Z,30
2018-11-20T01:57:38.990Z,29.9
2018-11-20T01:58:29.745Z,29.8
2018-11-20T01:59:19.228Z,28.5
2018-11-20T02:00:08.010Z,28
2018-11-20T02:00:59.610Z,27.7
2018-11-20T02:01:50.545Z,27.4
2018-11-20T02:02:39.200Z,27.3
2018-11-20T02:03:30.228Z,27.2
2018-11-20T02:04:20.749Z,27
2018-11-20T02:05:09.600Z,26.8
2018-11-20T02:06:00.667Z,26.9
2018-11-20T02:06:50.745Z,27.2
2018-11-20T02:08:29.730Z,27.9
2018-11-20T02:09:20.458Z,28.1
2018-11-20T02:10:10.305Z,28.4
2018-11-20T02:11:00.185Z,28.6
2018-11-20T02:11:50.360Z,28.8
2018-11-20T02:12:41.181Z,29.1
2018-11-20T02:13:29.145Z,29.3
2018-11-20T02:14:20.609Z,29.4
2018-11-20T02:15:10.259Z,29.7
2018-11-20T02:16:01.679Z,29.8
2018-11-20T02:16:50.062Z,29.9
2018-11-20T02:17:40.866Z,30.1
2018-11-20T02:18:30.729Z,30.3
2018-11-20T02:19:20.876Z,30.4
2018-11-20T02:20:10.167Z,30.5
2018-11-20T02:21:01.957Z,30.6
2018-11-20T02:21:51.824Z,30.7
2018-11-20T02:22:41.877Z,30.8
2018-11-20T02:23:32.450Z,30.9
2018-11-20T02:24:20.726Z,31
2018-11-20T02:25:11.517Z,31.1
2018-11-20T02:26:02.166Z,31.1
2018-11-20T02:26:51.979Z,31.2
2018-11-20T02:27:41.666Z,31.3
2018-11-20T02:28:32.058Z,31.2
2018-11-20T02:29:22.159Z,31.1
2018-11-20T02:30:12.573Z,30.9
2018-11-20T02:31:00.617Z,30.8
2018-11-20T02:31:52.416Z,30.6
2018-11-20T02:32:41.366Z,30.5
2018-11-20T02:33:33.006Z,30.4
2018-11-20T02:34:21.369Z,30.3
2018-11-20T02:35:12.991Z,30.1
2018-11-20T02:36:01.682Z,29.9
2018-11-20T02:36:52.182Z,29.8
2018-11-20T02:37:43.250Z,28.7
2018-11-20T02:38:31.488Z,28.1
2018-11-20T02:40:13.393Z,27.6
2018-11-20T02:41:02.478Z,27.4
2018-11-20T02:41:53.375Z,27.3
2018-11-20T02:42:42.795Z,27.1
2018-11-20T02:43:32.740Z,27
2018-11-20T02:44:22.535Z,26.9
2018-11-20T02:45:12.607Z,27.1
2018-11-20T02:46:03.007Z,27.7
2018-11-20T02:46:52.324Z,27.9
2018-11-20T02:47:43.338Z,28.1
2018-11-20T02:48:35.852Z,28.3
2018-11-20T02:49:21.107Z,28.4
2018-11-20T02:50:13.593Z,28.7
2018-11-20T02:51:02.414Z,28.9
2018-11-20T02:51:53.953Z,29.1
2018-11-20T02:52:43.707Z,29.3
2018-11-20T02:53:33.569Z,29.4
2018-11-20T02:54:22.637Z,29.6
2018-11-20T02:55:12.047Z,29.7
2018-11-20T02:56:04.257Z,29.8
2018-11-20T02:56:54.262Z,29.9
2018-11-20T02:57:43.584Z,30.1
2018-11-20T02:58:33.027Z,30.1
2018-11-20T02:59:23.664Z,30.2
2018-11-20T03:00:14.446Z,30.3
2018-11-20T03:01:03.754Z,30.3
2018-11-20T03:01:53.854Z,30.4
2018-11-20T03:02:43.596Z,30.4
2018-11-20T03:03:34.262Z,30.4
2018-11-20T03:04:24.014Z,30.4
2018-11-20T03:05:14.012Z,30.5
2018-11-20T03:06:03.841Z,30.5
2018-11-20T03:06:54.032Z,30.5
2018-11-20T03:07:44.481Z,30.6
2018-11-20T03:08:34.726Z,30.6
2018-11-20T03:09:24.857Z,30.6
2018-11-20T03:10:15.031Z,30.6
2018-11-20T03:11:04.371Z,30.6
2018-11-20T03:11:53.909Z,30.6
2018-11-20T03:12:44.161Z,30.6
2018-11-20T03:13:35.161Z,30.6
2018-11-20T03:14:24.431Z,30.6
2018-11-20T03:15:14.653Z,30.6
2018-11-20T03:16:05.051Z,30.6
2018-11-20T03:16:54.879Z,30.6
2018-11-20T03:17:45.822Z,30.6
2018-11-20T03:18:35.443Z,30.6
2018-11-20T03:19:24.670Z,30.5
2018-11-20T03:20:15.208Z,30.5
2018-11-20T03:21:05.716Z,30.5
2018-11-20T03:21:56.225Z,30.5
2018-11-20T03:22:45.753Z,30.5
2018-11-20T03:23:35.305Z,30.5
2018-11-20T03:24:25.593Z,30.5
2018-11-20T03:25:15.403Z,30.5
2018-11-20T03:26:06.088Z,30.5
2018-11-20T03:26:56.314Z,30.5
2018-11-20T03:27:45.822Z,30.4
2018-11-20T03:28:36.372Z,30.4
2018-11-20T03:29:26.495Z,30.3
2018-11-20T03:30:15.648Z,30.1
2018-11-20T03:31:06.180Z,29.7
2018-11-20T03:31:56.119Z,28.9
2018-11-20T03:32:46.620Z,28.2
2018-11-20T03:33:36.184Z,27.4
2018-11-20T03:34:26.949Z,26.7
2018-11-20T03:35:16.394Z,25.9
2018-11-20T03:36:06.747Z,25
2018-11-20T03:36:56.840Z,24.5
2018-11-20T03:37:46.862Z,24.6
2018-11-20T03:38:36.249Z,25.2
2018-11-20T03:39:26.134Z,26.1
2018-11-20T03:40:17.205Z,27
2018-11-20T03:41:06.672Z,27.4
2018-11-20T03:42:46.108Z,28.1
2018-11-20T03:43:35.989Z,28.3
2018-11-20T03:44:27.311Z,28.7
2018-11-20T03:45:17.021Z,29
2018-11-20T03:46:06.792Z,29.3
2018-11-20T03:46:57.174Z,29.6
2018-11-20T03:47:47.824Z,29.8
2018-11-20T03:48:36.164Z,30
2018-11-20T03:49:27.299Z,30.3
2018-11-20T03:50:17.101Z,30.4
2018-11-20T03:51:07.576Z,30.6
2018-11-20T03:51:57.526Z,30.8
2018-11-20T03:52:46.957Z,30.9
2018-11-20T03:53:36.852Z,31.1
2018-11-20T03:54:26.481Z,31.3
2018-11-20T03:55:17.496Z,31.2
2018-11-20T03:56:06.743Z,31.1
2018-11-20T03:56:57.645Z,30.9
2018-11-20T03:57:46.848Z,30.8
2018-11-20T03:58:36.992Z,30.7
2018-11-20T03:59:26.610Z,30.6
2018-11-20T04:00:17.073Z,30.4
2018-11-20T04:01:07.126Z,30.3
2018-11-20T04:01:57.830Z,30.2
2018-11-20T04:02:48.622Z,30
2018-11-20T04:03:38.565Z,29.9
2018-11-20T04:04:28.320Z,29.3
2018-11-20T04:05:19.193Z,28.6
2018-11-20T04:06:07.943Z,28.8
2018-11-20T04:06:58.015Z,29.1
2018-11-20T04:07:48.828Z,28.9
2018-11-20T04:08:39.473Z,29.1
2018-11-20T04:09:29.335Z,29.3
2018-11-20T04:10:19.265Z,29.5
2018-11-20T04:11:07.687Z,29.7
2018-11-20T04:11:58.182Z,29.9
2018-11-20T04:12:49.767Z,30.1
2018-11-20T04:13:38.339Z,30.3
2018-11-20T04:14:29.702Z,30.5
2018-11-20T04:15:16.925Z,30.6
2018-11-20T04:16:09.344Z,30.8
2018-11-20T04:16:59.469Z,30.9
2018-11-20T04:17:50.663Z,31.1
2018-11-20T04:18:39.942Z,31.2
2018-11-20T04:19:29.554Z,31.3
2018-11-20T04:20:18.963Z,31.2
2018-11-20T04:21:09.597Z,31.1
2018-11-20T04:21:59.847Z,30.9
2018-11-20T04:22:49.929Z,30.8
2018-11-20T04:23:40.357Z,30.6
2018-11-20T04:24:29.601Z,30.5
2018-11-20T04:25:35.900Z,30.4
2018-11-20T04:26:10.441Z,30.2
2018-11-20T04:27:00.788Z,30.1
2018-11-20T04:27:50.617Z,29.9
2018-11-20T04:28:39.816Z,29
2018-11-20T04:29:29.380Z,28.4
2018-11-20T04:30:21.883Z,28
2018-11-20T04:31:11.044Z,27.8
2018-11-20T04:32:00.994Z,27.6
2018-11-20T04:32:50.627Z,27.4
2018-11-20T04:33:41.558Z,27.3
2018-11-20T04:34:30.839Z,27.1
2018-11-20T04:35:21.025Z,26.9
2018-11-20T04:36:11.670Z,27.1
2018-11-20T04:37:00.731Z,27.4
2018-11-20T09:08:45.329Z,31.1
2018-11-20T09:09:35.454Z,31.4
2018-11-20T09:10:25.292Z,31.3
2018-11-20T09:11:13.594Z,31.2
2018-11-20T09:12:04.884Z,31.1
2018-11-20T09:12:54.571Z,30.9
2018-11-20T09:13:46.612Z,30.8
2018-11-20T09:14:35.489Z,30.7
2018-11-20T09:15:24.792Z,30.5
2018-11-20T09:16:15.192Z,30.4
2018-11-20T09:17:06.269Z,30.2
2018-11-20T09:17:55.701Z,30.1
2018-11-20T09:18:44.707Z,29.9
2018-11-20T09:19:36.379Z,29.2
2018-11-20T09:20:27.836Z,28.3
2018-11-20T09:21:16.100Z,27.8
2018-11-20T09:22:05.779Z,27.4
2018-11-20T09:22:55.861Z,27.3
2018-11-20T09:23:46.464Z,27.1
2018-11-20T09:24:35.244Z,26.9
2018-11-20T09:25:24.512Z,26.8
2018-11-20T09:26:16.329Z,26.7
2018-11-20T09:27:06.285Z,26.5
2018-11-20T09:27:56.539Z,26.6
2018-11-20T09:28:46.308Z,27.1
2018-11-20T09:29:36.186Z,27.3
2018-11-20T09:30:25.541Z,27.6
2018-11-20T09:31:15.363Z,27.9
2018-11-20T09:32:05.156Z,28.2
2018-11-20T09:32:57.068Z,28.5
2018-11-20T09:33:46.448Z,28.9
2018-11-20T09:34:38.623Z,29.2
2018-11-20T09:35:29.135Z,29.5
2018-11-20T09:36:16.963Z,29.8
2018-11-20T09:37:06.139Z,30
2018-11-20T09:37:57.020Z,30.2
2018-11-20T09:38:44.575Z,30.4
2018-11-20T09:39:37.829Z,30.6
2018-11-20T09:40:25.830Z,30.8
2018-11-20T09:41:16.493Z,31
2018-11-20T09:42:06.877Z,31.2
2018-11-20T09:42:57.045Z,31.3
2018-11-20T09:43:46.895Z,31.2
2018-11-20T09:44:37.627Z,31.1
2018-11-20T09:45:26.999Z,30.9
2018-11-20T09:46:17.151Z,30.8
2018-11-20T09:47:07.390Z,30.7
2018-11-20T09:47:57.255Z,30.6
2018-11-20T09:48:47.885Z,30.4
2018-11-20T09:49:38.310Z,30.3
2018-11-20T09:50:27.154Z,30.1
2018-11-20T09:51:17.737Z,30
2018-11-20T09:52:07.304Z,29.9
2018-11-20T09:52:59.180Z,29.8
2018-11-20T09:53:47.117Z,29.6
2018-11-20T09:54:38.433Z,29.5
2018-11-20T09:55:28.017Z,28.5
2018-11-20T09:56:17.545Z,28
2018-11-20T09:57:08.463Z,28.3
2018-11-20T09:57:57.567Z,28.3
2018-11-20T09:58:48.416Z,28.3
2018-11-20T09:59:39.960Z,28.6
2018-11-20T10:00:29.575Z,28.9
2018-11-20T10:01:18.471Z,29.1
2018-11-20T10:02:09.109Z,29.4
2018-11-20T10:02:58.871Z,29.7
2018-11-20T10:03:49.704Z,29.9
2018-11-20T10:04:38.066Z,30.2
2018-11-20T10:05:29.891Z,30.4
2018-11-20T10:06:18.903Z,30.6
2018-11-20T10:07:10.680Z,30.8
2018-11-20T10:07:58.698Z,30.9
2018-11-20T10:08:50.689Z,31.1
2018-11-20T10:09:39.859Z,31.3
2018-11-20T10:10:27.792Z,31.2
2018-11-20T10:11:19.093Z,31.1
2018-11-20T10:12:08.171Z,31
2018-11-20T10:12:58.831Z,30.8
2018-11-20T10:13:49.779Z,30.7
2018-11-20T10:14:40.218Z,30.6
2018-11-20T10:15:29.598Z,30.4
2018-11-20T10:16:18.305Z,30.3
2018-11-20T10:17:08.898Z,30.2
2018-11-20T10:17:59.593Z,30
2018-11-20T10:18:48.816Z,29.9
2018-11-20T10:19:40.053Z,29.8
2018-11-20T10:20:30.372Z,29.6
2018-11-20T10:21:19.424Z,29.5
2018-11-20T10:22:11.991Z,29.4
2018-11-20T10:22:59.320Z,28.1
2018-11-20T10:23:51.236Z,28
2018-11-20T10:24:40.494Z,28.4
2018-11-20T10:25:33.027Z,28.2
2018-11-20T10:26:20.641Z,28.4
2018-11-20T10:27:10.857Z,28.7
2018-11-20T10:27:59.717Z,28.9
2018-11-20T10:28:50.642Z,29.2
2018-11-20T10:29:39.887Z,29.4
2018-11-20T10:30:30.717Z,29.7
2018-11-20T10:31:21.662Z,29.9
2018-11-20T10:32:10.665Z,30.2
2018-11-20T10:33:01.292Z,30.4
2018-11-20T10:33:50.892Z,30.6
2018-11-20T10:34:41.563Z,30.8
2018-11-20T10:35:31.233Z,31
2018-11-20T10:36:22.252Z,31.1
2018-11-20T10:37:10.026Z,31.3
2018-11-20T10:38:00.307Z,31.3
2018-11-20T10:38:51.308Z,31.1
2018-11-20T10:39:41.495Z,31
2018-11-20T10:40:30.730Z,30.9
2018-11-20T10:41:22.671Z,30.7
2018-11-20T10:42:10.531Z,30.6
2018-11-20T10:43:00.581Z,30.4
2018-11-20T10:43:51.178Z,30.3
2018-11-20T10:44:41.403Z,30.2
2018-11-20T10:45:32.432Z,30
2018-11-20T10:46:24.087Z,29.9
2018-11-20T10:47:10.567Z,29.8
2018-11-20T10:48:01.631Z,29.6
2018-11-20T10:48:50.992Z,29.5
2018-11-20T10:49:42.360Z,29.4
2018-11-20T10:50:31.761Z,28.3
2018-11-20T10:51:22.176Z,27.9
2018-11-20T10:52:10.073Z,28.3
2018-11-20T10:53:02.248Z,28.2
2018-11-20T10:53:51.476Z,28.4
2018-11-20T10:54:41.508Z,28.6
2018-11-20T10:55:31.198Z,28.9
2018-11-20T10:56:21.345Z,29.2
2018-11-20T10:57:12.548Z,29.4
2018-11-20T10:58:01.806Z,29.8
2018-11-20T10:58:52.349Z,29.9
2018-11-20T10:59:43.799Z,30.2
2018-11-20T11:00:31.878Z,30.4
2018-11-20T11:01:23.630Z,30.6
2018-11-20T11:02:11.676Z,30.8
2018-11-20T11:03:02.427Z,31
2018-11-20T11:03:52.142Z,31.2
2018-11-20T11:04:42.489Z,31.3
2018-11-20T11:05:32.566Z,31.3
2018-11-20T11:06:25.691Z,31.1
2018-11-20T11:07:19.652Z,30.9
2018-11-20T11:08:04.585Z,30.8
2018-11-20T11:08:53.463Z,30.7
2018-11-20T11:09:42.002Z,30.6
2018-11-20T11:10:32.954Z,30.4
2018-11-20T11:11:24.785Z,30.3
2018-11-20T11:12:16.760Z,30.1
2018-11-20T11:13:04.342Z,30
2018-11-20T11:13:54.367Z,29.9
2018-11-20T11:14:44.810Z,29.8
2018-11-20T11:15:33.921Z,29.6
2018-11-20T11:16:23.435Z,29.5
2018-11-20T11:17:14.806Z,29.4
2018-11-20T11:18:03.769Z,28.3
2018-11-20T11:18:52.423Z,27.9
2018-11-20T11:19:44.651Z,28.3
2018-11-20T11:20:36.446Z,28.2
2018-11-20T11:21:23.731Z,28.3
2018-11-20T11:22:14.059Z,28.6
2018-11-20T11:23:06.196Z,28.9
2018-11-20T11:23:54.766Z,29.1
2018-11-20T11:24:43.786Z,29.4
2018-11-20T11:25:34.393Z,29.7
2018-11-20T11:26:23.709Z,29.9
2018-11-20T11:27:14.112Z,30.2
2018-11-20T11:28:04.486Z,30.4
2018-11-20T11:28:57.949Z,30.6
2018-11-20T11:29:44.075Z,30.8
2018-11-20T11:30:33.812Z,31
2018-11-20T11:31:24.461Z,31.2
2018-11-20T11:32:14.150Z,31.3
2018-11-20T11:33:03.855Z,31.3
2018-11-20T11:33:53.941Z,31.1
2018-11-20T11:34:44.576Z,31
2018-11-20T11:35:33.708Z,30.9
2018-11-20T11:36:23.743Z,30.8
2018-11-20T11:37:13.960Z,30.6
2018-11-20T11:38:05.846Z,30.4
2018-11-20T11:38:54.585Z,30.3
2018-11-20T11:39:45.648Z,30.2
2018-11-20T11:40:34.957Z,30.1
2018-11-20T11:41:24.872Z,29.9
2018-11-20T11:42:14.841Z,29.8
2018-11-20T11:43:05.010Z,29.7
2018-11-20T11:43:55.398Z,29.6
2018-11-20T11:44:44.905Z,29.4
2018-11-20T11:45:34.937Z,29
2018-11-20T11:46:25.067Z,27.9
2018-11-20T11:47:15.635Z,28.1
2018-11-20T11:48:06.427Z,28.2
2018-11-20T11:48:55.510Z,28.2
2018-11-20T11:49:45.527Z,28.4
2018-11-20T11:50:34.343Z,28.8
2018-11-20T11:51:29.765Z,29
2018-11-20T11:52:16.662Z,29.3
2018-11-20T11:53:06.659Z,29.6
2018-11-20T11:53:55.454Z,29.8
2018-11-20T11:54:45.889Z,30.1
2018-11-20T11:55:34.864Z,30.3
2018-11-20T11:56:26.212Z,30.5
2018-11-20T11:57:15.979Z,30.7
2018-11-20T11:58:05.712Z,30.9
2018-11-20T11:58:55.872Z,31.1
2018-11-20T11:59:45.629Z,31.3
2018-11-20T12:00:36.634Z,31.3
2018-11-20T12:01:26.345Z,31.2
2018-11-20T12:03:54.864Z,30.8
2018-11-20T12:04:46.575Z,30.7
2018-11-20T12:05:35.834Z,30.5
2018-11-20T12:06:25.725Z,30.4
2018-11-20T12:07:17.161Z,30.3
2018-11-20T12:08:07.293Z,30.1
2018-11-20T12:08:57.651Z,30
2018-11-20T12:09:46.981Z,29.9
2018-11-20T12:10:41.946Z,29.8
2018-11-20T12:11:27.299Z,29.6
2018-11-20T12:12:15.600Z,29.5
2018-11-20T12:13:07.628Z,29.4
2018-11-20T12:13:56.240Z,28.3
2018-11-20T12:14:51.337Z,27.9
2018-11-20T12:15:37.185Z,28.3
2018-11-20T12:16:27.768Z,28.1
2018-11-20T12:17:17.506Z,28.3
2018-11-20T12:18:07.978Z,28.6
2018-11-20T12:18:59.835Z,28.8
2018-11-20T12:19:47.833Z,29.1
2018-11-20T12:20:37.036Z,29.4
2018-11-20T12:21:27.174Z,29.7
2018-11-20T12:22:18.014Z,29.9
2018-11-20T12:23:08.043Z,30.2
2018-11-20T12:23:58.282Z,30.4
2018-11-20T12:24:50.253Z,30.6
2018-11-20T12:25:38.138Z,30.9
2018-11-20T12:26:28.012Z,31
2018-11-20T12:27:17.484Z,31.2
2018-11-20T12:28:07.558Z,31.3
2018-11-20T12:29:03.852Z,31.3
2018-11-20T12:29:48.844Z,31.1
2018-11-20T12:30:38.038Z,31
2018-11-20T12:31:33.035Z,30.9
2018-11-20T12:32:18.020Z,30.8
2018-11-20T12:33:09.012Z,30.6
2018-11-20T12:34:02.995Z,30.5
2018-11-20T12:34:48.888Z,30.3
2018-11-20T12:35:47.062Z,30.2
2018-11-20T12:36:33.167Z,30.1
2018-11-20T12:37:19.157Z,29.9
2018-11-20T12:38:08.350Z,29.8
2018-11-20T12:39:00.296Z,29.7
2018-11-20T12:39:49.860Z,29.6
2018-11-20T12:40:39.109Z,29.4
2018-11-20T12:41:32.237Z,29.3
2018-11-20T12:42:19.611Z,28.1
2018-11-20T12:43:08.773Z,27.9
2018-11-20T12:44:05.967Z,28.3
2018-11-20T12:44:48.554Z,28.1
2018-11-20T12:45:42.129Z,28.3
2018-11-20T12:46:28.091Z,28.6
2018-11-20T12:47:21.321Z,28.9
2018-11-20T12:48:11.545Z,29.2
2018-11-20T12:49:03.769Z,29.5
2018-11-20T12:49:53.250Z,29.8
2018-11-20T12:50:40.703Z,30
2018-11-20T12:51:33.076Z,30.3
2018-11-20T12:52:23.647Z,30.4
2018-11-20T12:53:12.257Z,30.7
2018-11-20T12:54:02.511Z,30.9
2018-11-20T12:54:53.541Z,31.1
2018-11-20T12:55:43.038Z,31.2
2018-11-20T12:56:29.460Z,31.3
2018-11-20T12:57:21.378Z,31.2
2018-11-20T12:58:10.053Z,31.1
2018-11-20T12:59:02.141Z,30.9
2018-11-20T12:59:51.053Z,30.8
2018-11-20T13:00:43.481Z,30.7
2018-11-20T13:01:30.754Z,30.6
2018-11-20T13:02:21.155Z,30.4
2018-11-20T13:03:09.930Z,30.3
2018-11-20T13:04:00.096Z,30.1
2018-11-20T13:04:52.605Z,30
2018-11-20T13:05:42.855Z,29.9
2018-11-20T13:06:31.630Z,29.8
2018-11-20T13:07:22.900Z,29.6
2018-11-20T13:08:10.992Z,29.5
2018-11-20T13:09:02.765Z,29.4
2018-11-20T13:09:52.463Z,28.8
2018-11-20T13:10:40.649Z,27.9
2018-11-20T13:11:31.144Z,28
2018-11-20T13:12:21.447Z,28.1
2018-11-20T13:13:12.032Z,28.2
2018-11-20T13:14:05.285Z,28.4
2018-11-20T13:14:53.784Z,28.8
2018-11-20T13:15:42.397Z,29
2018-11-20T13:16:31.051Z,29.3
2018-11-20T13:17:23.782Z,29.6
2018-11-20T13:18:13.217Z,29.8
2018-11-20T13:19:03.247Z,30.1
2018-11-20T13:19:52.184Z,30.3
2018-11-20T13:20:42.581Z,30.5
2018-11-20T13:21:31.766Z,30.8
2018-11-20T13:22:23.454Z,30.9
2018-11-20T13:23:12.966Z,31.1
2018-11-20T13:24:01.577Z,31.3
2018-11-20T13:24:51.209Z,31.3
2018-11-20T13:25:42.703Z,31.2
2018-11-20T13:26:33.521Z,31.1
2018-11-20T13:27:21.804Z,30.9
2018-11-20T13:28:12.643Z,30.8
2018-11-20T13:29:02.369Z,30.7
2018-11-20T13:29:51.989Z,30.6
2018-11-20T13:30:42.673Z,30.4
2018-11-20T13:31:32.890Z,30.3
2018-11-20T13:32:22.623Z,30.1
2018-11-20T13:33:13.942Z,30
2018-11-20T13:34:04.591Z,29.9
2018-11-20T13:34:57.638Z,29.8
2018-11-20T13:35:42.967Z,29.6
2018-11-20T13:36:33.109Z,29.5
2018-11-20T13:37:24.333Z,29.4
2018-11-20T13:38:11.649Z,29
2018-11-20T13:39:05.905Z,27.9
2018-11-20T13:39:52.096Z,27.9
2018-11-20T13:40:41.960Z,28.1
2018-11-20T13:41:32.695Z,28.1
2018-11-20T13:42:23.073Z,28.4
2018-11-20T13:43:15.257Z,28.7
2018-11-20T13:44:03.822Z,28.9
2018-11-20T13:44:55.347Z,29.3
2018-11-20T13:45:43.808Z,29.5
2018-11-20T13:46:35.687Z,29.8
2018-11-20T13:47:22.839Z,30.1
2018-11-20T13:48:14.382Z,30.3
2018-11-20T13:49:03.725Z,30.5
2018-11-20T13:49:55.125Z,30.7
2018-11-20T13:50:44.162Z,30.9
2018-11-20T14:07:31.823Z,28.1
2018-11-20T14:08:21.602Z,27.9
2018-11-20T14:09:12.951Z,28.1
2018-11-20T14:10:02.527Z,28.1
2018-11-20T14:10:52.401Z,28.3
2018-11-20T14:11:57.426Z,28.6
2018-11-20T14:12:32.588Z,28.9
2018-11-20T14:13:23.443Z,29.2
2018-11-20T14:14:12.224Z,29.4
2018-11-20T14:15:02.726Z,29.7
2018-11-20T14:16:06.640Z,29.9
2018-11-20T14:16:42.635Z,30.3
2018-11-20T14:17:32.670Z,30.4
2018-11-20T14:18:23.455Z,30.6
2018-11-20T14:19:28.115Z,30.8
2018-11-20T14:20:03.555Z,31
2018-11-20T14:20:52.938Z,31.1
2018-11-20T14:21:42.891Z,31.3
2018-11-20T14:22:32.960Z,31.3
2018-11-20T14:23:39.203Z,31.1
2018-11-20T14:24:13.210Z,31
2018-11-20T14:25:02.727Z,30.9
2018-11-20T14:25:53.235Z,30.8
2018-11-20T14:26:58.220Z,30.6
2018-11-20T14:27:33.700Z,30.4
2018-11-20T14:28:38.622Z,30.3
2018-11-20T14:29:13.990Z,30.2
2018-11-20T14:30:18.564Z,30.1
2018-11-20T14:30:53.292Z,29.9
2018-11-20T14:31:44.165Z,29.8
2018-11-20T14:32:33.502Z,29.7
2018-11-20T14:33:23.081Z,29.6
2018-11-20T14:34:13.479Z,29.4
2018-11-20T14:35:04.593Z,29.3
2018-11-20T14:35:53.900Z,28.3
2018-11-20T14:37:35.667Z,28.2
2018-11-20T14:38:38.015Z,28.1
2018-11-20T14:39:14.731Z,28.3
2018-11-20T14:40:04.692Z,28.6
2018-11-20T14:41:27.049Z,28.8
2018-11-20T14:41:43.717Z,29.3
2018-11-20T14:42:33.274Z,29.4
2018-11-20T14:43:24.722Z,29.7
2018-11-20T14:44:14.274Z,29.9
2018-11-20T14:45:04.359Z,30.2
2018-11-20T14:45:54.703Z,30.4
2018-11-20T14:46:45.131Z,30.6
2018-11-20T14:47:34.539Z,30.8
2018-11-20T14:48:39.171Z,30.9
2018-11-20T14:49:14.872Z,31.2
2018-11-20T14:50:04.299Z,31.3
2018-11-20T14:51:09.110Z,31.3
2018-11-20T14:51:43.923Z,31.1
2018-11-20T14:52:36.317Z,31
2018-11-20T14:53:24.886Z,30.9
2018-11-20T14:54:16.309Z,30.8
2018-11-20T14:55:04.968Z,30.6
2018-11-20T14:55:55.351Z,30.4
2018-11-20T14:56:45.692Z,30.3
2018-11-20T14:57:50.262Z,30.2
2018-11-20T14:58:25.040Z,30
2018-11-20T14:59:15.733Z,29.9
2018-11-20T15:00:05.749Z,29.8
2018-11-20T15:00:55.328Z,29.7
2018-11-20T15:01:45.690Z,29.6
2018-11-20T15:02:50.205Z,29.4
2018-11-20T15:03:25.725Z,29.2
2018-11-20T15:04:16.170Z,28.1
2018-11-20T15:05:05.888Z,27.9
2018-11-20T15:05:55.915Z,28.3
2018-11-20T15:06:47.239Z,28.1
2018-11-20T15:07:35.550Z,28.4
2018-11-20T15:08:42.700Z,28.6
2018-11-20T15:09:15.879Z,29
2018-11-20T15:10:06.629Z,29.1
2018-11-20T15:10:56.265Z,29.4
2018-11-20T15:11:46.455Z,29.7
2018-11-20T15:12:36.312Z,29.9
2018-11-20T15:13:26.217Z,30.1
2018-11-20T15:14:16.497Z,30.4
2018-11-20T15:15:06.977Z,30.6
2018-11-20T15:15:55.676Z,30.8
2018-11-20T15:17:01.341Z,30.9
2018-11-20T15:17:36.828Z,31.2
2018-11-20T15:18:26.487Z,31.3
2018-11-20T15:19:15.627Z,31.3
2018-11-20T15:20:06.718Z,31.1
2018-11-20T15:21:10.510Z,30.9
2018-11-20T15:21:46.504Z,30.8
2018-11-20T15:22:36.258Z,30.7
2018-11-20T15:23:26.878Z,30.6
2018-11-20T15:24:15.651Z,30.4
2018-11-20T15:25:08.173Z,30.3
2018-11-20T15:26:03.850Z,30.2
2018-11-20T15:26:46.673Z,30.1
2018-11-20T15:27:38.039Z,29.6
2018-11-20T15:28:28.021Z,28.5
2018-11-20T15:29:17.333Z,28
2018-11-20T15:30:07.346Z,27.7
2018-11-20T15:31:12.349Z,27.5
2018-11-20T15:31:48.193Z,27.3
2018-11-20T15:32:53.853Z,27.2
2018-11-20T15:33:28.833Z,27
2018-11-20T15:34:17.893Z,26.9
2018-11-20T15:35:08.495Z,26.8
2018-11-20T15:36:12.588Z,26.7
2018-11-20T15:36:49.670Z,26.6
2018-11-20T15:37:38.823Z,26.6
2018-11-20T15:38:41.675Z,27.1
2018-11-20T15:39:18.349Z,27.3
2018-11-20T15:40:09.215Z,27.6
2018-11-20T15:40:58.688Z,27.9
2018-11-20T15:41:50.370Z,28.3
2018-11-20T15:42:39.192Z,28.6
2018-11-20T15:43:27.698Z,28.9
2018-11-20T15:44:19.095Z,29.2
2018-11-20T15:45:08.598Z,29.5
2018-11-20T15:47:04.455Z,30.1
2018-11-20T15:47:38.548Z,30.3
2018-11-20T15:48:29.577Z,30.4
2018-11-20T15:49:19.909Z,30.6
2018-11-20T15:50:09.149Z,30.8
2018-11-20T15:50:58.413Z,30.9
2018-11-20T15:51:47.905Z,31.1
2018-11-20T15:52:40.067Z,31.3
2018-11-20T15:53:29.430Z,31.3
2018-11-20T15:54:19.134Z,31.1
2018-11-20T15:55:08.659Z,31
2018-11-20T15:55:58.319Z,30.8
2018-11-20T15:56:49.479Z,30.7
2018-11-20T15:57:38.874Z,30.6
2018-11-20T15:58:29.919Z,30.4
2018-11-20T15:59:19.497Z,30.3
2018-11-20T16:00:24.396Z,30.2
2018-11-20T16:00:59.672Z,30
2018-11-20T16:01:49.557Z,29.9
2018-11-20T16:02:40.213Z,28.6
2018-11-20T16:03:31.452Z,28
2018-11-20T16:04:20.033Z,27.7
2018-11-20T16:05:09.484Z,27.4
2018-11-20T16:06:14.201Z,27.3
2018-11-20T16:06:48.758Z,27.1
2018-11-20T16:07:40.328Z,27.1
2018-11-20T16:08:30.592Z,26.9
2018-11-20T16:09:21.255Z,26.8
2018-11-20T16:10:10.173Z,26.7
2018-11-20T16:10:59.630Z,26.6
2018-11-20T16:11:51.298Z,26.7
2018-11-20T16:12:57.543Z,27.3
2018-11-20T16:13:29.710Z,27.4
2018-11-20T16:14:20.281Z,27.7
2018-11-20T16:15:09.956Z,28
2018-11-20T16:16:01.896Z,28.4
2018-11-20T16:16:50.680Z,28.7
2018-11-20T16:17:40.168Z,28.9
2018-11-20T16:18:30.325Z,29.3
2018-11-20T16:19:20.730Z,29.5
2018-11-20T16:20:24.838Z,29.8
2018-11-20T16:21:16.543Z,30.1
2018-11-20T16:21:51.487Z,30.3
2018-11-20T16:22:41.870Z,30.4
2018-11-20T16:23:31.840Z,30.6
2018-11-20T16:24:22.314Z,30.8
2018-11-20T16:25:11.690Z,30.9
2018-11-20T16:26:01.764Z,31.1
2018-11-20T16:26:51.889Z,31.2